Gniezno, Poland
Current Conditions -  °F | °C
As of 3:00 PM on Thursday 18 Dec 2014 (Local Time) from EPPO Reporting Station
Broken Clouds Broken Clouds  
Wind Chill: 43°   Ceiling: 2300
Heat Index: 46°   Visibility: 6mi
Dew Point: 45°   Wind: 7mph
Humidity: 93%   Direction: 220°SW
Pressure: 29.8"   Gusts: NA
Location:  52.53°N, 17.61°E
Report Text: EPPO 181400Z 22006KT 9999 SCT010 BKN023 08/07 Q1009
Loading
Personal Weather Stations






























Interactive Weather Map New forecast layout! Learn more

10-Day Weather Forecast

Advertisements
Track Severe Weather on mobile